الصفحة الرئيسية
METAR-TAF:

METAR-TAF

مطار :

مطار غران كناريا

كناريا الكبرى, إسبانيا

دائرة عرض: 27-56N, خط طول: 015-23W, ارتفاع: 23 متر

مراقبة الطقس الحالي

تاريخ ووقت الإصدار 25 دقيقة قبل الساعة 07:00UTC
ريح 16 عقدة من الشمال
درجة الحرارة 20°درجة مئوية
الرطوبة 78%
ضغط 1016 hPa
الرؤية 10 كم أو أكثر
غيوم قليلة على ارتفاع 2000 قدم
غيوم متفرقة على ارتفاع 3500 قدم
غيوم مفككة على ارتفاع 5500 قدم

METAR: GCLP 150700Z 01016KT 9999 FEW020 SCT035 BKN055 20/16 Q1016 NOSIG

زمن: 07:25 (07:25 UTC)

توقعات

تاريخ ووقت الإصدار 5ساعات و 25 دقيقة قبل الساعة 02:00UTC
التوقعات صالحة من15 الساعة 03 UTC إلى 16 الساعة 03 UTC
ريح 20 عقدة من الشمال
الرؤية 10 كم أو أكثر
غيوم مفككة على ارتفاع 3500 قدم
نظرية الاحتمالات 30% :
مؤقت
من 15 الساعة 03 UTC إلى 16 الساعة 03 UTC
ريح 20 عقدة من الشمال تتزايد حتى 30 عقدة
نظرية الاحتمالات 30% :
مؤقت
من 15 الساعة 03 UTC إلى 15 الساعة 09 UTC
رذاذ, مطر

TAF: GCLP 150200Z 1503/1603 01020KT 9999 BKN035 TX21/1514Z TN17/1506Z PROB30 TEMPO 1503/1603 01020G30KT PROB30 TEMPO 1503/1509 DZRA

أرصاد الطقس والتوقعات من أكثر من 4000 مطار (تقارير الطقس للمطار METAR والتنبؤ بالطقس بالمطارTAF).

المحطات المتاحة هي النقط الصفراء والحمراء على الخريطة.

حرك المؤشر فوق النقطة لمعرفة اسم المحطة.

ثم انقر لمعرفة أرصاد وتوقعات الطقس.

لتغيير الخارطة: اضغط على الأزرار الخضراء مع رمز الصليب الأسود للتكبير. على الزر الأخضر مع شرطة للتصغير، أو على الأسهم الخضراء للخرائط المجاورة.


METAR-TAF: